Terminal Aerodrome Forecast
Issued by NWS Binghamton, NY

Home | Current Version | Previous Version | Text Only | Print | Product List | Glossary On
Versions: 1 2 3 4 5 6 7 8 9 10 11 12 13 14 15 16 17 18 19 20
000
FTUS41 KBGM 301900 AAB
TAFBGM
TAF AMD
KBGM 301926Z 3019/0118 12010KT P6SM -SHRA BKN045
      TEMPO 3019/3021 -TSRA BKN040CB
     FM302200 12005KT P6SM BKN040
      TEMPO 3022/0102 -SHRA
     FM010600 VRB03KT 3SM BR SCT002 BKN070
      TEMPO 0108/0112 1 1/2SM BR OVC002
     FM011300 10004KT P6SM BKN030=

USA.gov is the U.S. government's official web portal to all federal, state and local government web resources and services.